KCAO/CAO METAR and TAF weather

Enter ICAO airport designator
Station Type Date Time Source
KCAO METAR 2020/09/21 05:55 UTC NOAA

KCAO 210555Z AUTO 22010KT 10SM CLR 15/04 A3022 RMK AO2 SLP174 T01500044 10261 20144 51008


Station Type Date Time Source
KCAO Decoded METAR 2020/09/21 05:55 UTC NOAA

CLAYTON MUNICIPAL AIRPARK, NM, United States (KCAO) 36-27N 103-09W 1514M
Sep 21, 2020 - 01:55 AM EDT / 2020.09.21 0555 UTC
Wind: from the SW (220 degrees) at 12 MPH (10 KT):0
Visibility: 10 mile(s):0
Sky conditions: clear
Temperature: 59.0 F (15.0 C)
Dew Point: 39.9 F (4.4 C)
Relative Humidity: 49%
Pressure (altimeter): 30.22 in. Hg (1023 hPa)
Pressure tendency: 0.02 inches (0.8 hPa) higher than three hours ago
ob: KCAO 210555Z AUTO 22010KT 10SM CLR 15/04 A3022 RMK AO2 SLP174 T01500044 10261 20144 51008
cycle: 6

Station Type Date Time Source
KCAO TAF UTC NOAA

Error!

Example: see airport list